sensor_id;sensor_type;location;lat;lon;timestamp;pressure;altitude;pressure_sealevel;temperature;humidity
82743;BME280;72483;50.656;7.216;2023-12-20T00:02:08;100929.09;;;18.81;49.17
82743;BME280;72483;50.656;7.216;2023-12-20T00:04:34;100920.97;;;18.79;48.92
82743;BME280;72483;50.656;7.216;2023-12-20T00:07:01;100930.50;;;18.78;49.05
82743;BME280;72483;50.656;7.216;2023-12-20T00:09:27;100925.47;;;18.80;48.54
82743;BME280;72483;50.656;7.216;2023-12-20T00:11:55;100922.94;;;18.79;48.94
82743;BME280;72483;50.656;7.216;2023-12-20T00:14:22;100910.13;;;18.78;48.96
82743;BME280;72483;50.656;7.216;2023-12-20T00:16:48;100909.81;;;18.79;48.69
82743;BME280;72483;50.656;7.216;2023-12-20T00:19:15;100909.53;;;18.81;49.04
82743;BME280;72483;50.656;7.216;2023-12-20T00:21:42;100915.97;;;18.81;48.99
82743;BME280;72483;50.656;7.216;2023-12-20T00:24:08;100902.00;;;18.81;48.52
82743;BME280;72483;50.656;7.216;2023-12-20T00:26:35;100910.66;;;18.80;48.73
82743;BME280;72483;50.656;7.216;2023-12-20T00:29:03;100920.41;;;18.82;48.73
82743;BME280;72483;50.656;7.216;2023-12-20T00:31:29;100923.19;;;18.82;48.42
82743;BME280;72483;50.656;7.216;2023-12-20T00:33:56;100927.13;;;18.81;48.47
82743;BME280;72483;50.656;7.216;2023-12-20T00:36:22;100921.56;;;18.81;48.90
82743;BME280;72483;50.656;7.216;2023-12-20T00:38:49;100917.09;;;18.80;48.85
82743;BME280;72483;50.656;7.216;2023-12-20T00:41:16;100911.19;;;18.82;48.47
82743;BME280;72483;50.656;7.216;2023-12-20T00:43:43;100906.75;;;18.81;48.57
82743;BME280;72483;50.656;7.216;2023-12-20T00:46:11;100911.19;;;18.82;48.90
82743;BME280;72483;50.656;7.216;2023-12-20T00:48:37;100908.41;;;18.82;48.27
82743;BME280;72483;50.656;7.216;2023-12-20T00:51:04;100910.38;;;18.81;48.37
82743;BME280;72483;50.656;7.216;2023-12-20T00:53:30;100911.50;;;18.80;48.85
82743;BME280;72483;50.656;7.216;2023-12-20T00:55:57;100924.34;;;18.81;48.83
82743;BME280;72483;50.656;7.216;2023-12-20T00:58:24;100917.09;;;18.80;48.65
82743;BME280;72483;50.656;7.216;2023-12-20T01:00:51;100919.88;;;18.80;48.15
82743;BME280;72483;50.656;7.216;2023-12-20T01:03:20;100911.78;;;18.79;48.24
82743;BME280;72483;50.656;7.216;2023-12-20T01:05:46;100908.41;;;18.82;48.41
82743;BME280;72483;50.656;7.216;2023-12-20T01:08:13;100910.38;;;18.81;48.83
82743;BME280;72483;50.656;7.216;2023-12-20T01:10:39;100918.75;;;18.81;48.52
82743;BME280;72483;50.656;7.216;2023-12-20T01:13:06;100912.59;;;18.79;48.62
82743;BME280;72483;50.656;7.216;2023-12-20T01:15:32;100914.28;;;18.80;48.70
82743;BME280;72483;50.656;7.216;2023-12-20T01:17:58;100912.59;;;18.79;48.65
82743;BME280;72483;50.656;7.216;2023-12-20T01:20:26;100929.91;;;18.81;48.70
82743;BME280;72483;50.656;7.216;2023-12-20T01:22:53;100925.72;;;18.79;48.76
82743;BME280;72483;50.656;7.216;2023-12-20T01:25:19;100923.78;;;18.79;48.55
82743;BME280;72483;50.656;7.216;2023-12-20T01:27:46;100926.56;;;18.79;48.34
82743;BME280;72483;50.656;7.216;2023-12-20T01:30:13;100932.16;;;18.79;48.65
82743;BME280;72483;50.656;7.216;2023-12-20T01:32:39;100926.03;;;18.77;48.54
82743;BME280;72483;50.656;7.216;2023-12-20T01:35:06;100933.56;;;18.77;48.16
82743;BME280;72483;50.656;7.216;2023-12-20T01:37:34;100929.94;;;18.76;48.32
82743;BME280;72483;50.656;7.216;2023-12-20T01:40:01;100935.50;;;18.76;48.22
82743;BME280;72483;50.656;7.216;2023-12-20T01:42:28;100936.34;;;18.77;48.24
82743;BME280;72483;50.656;7.216;2023-12-20T01:44:54;100929.94;;;18.76;48.35
82743;BME280;72483;50.656;7.216;2023-12-20T01:47:21;100933.88;;;18.75;48.36
82743;BME280;72483;50.656;7.216;2023-12-20T01:49:48;100938.31;;;18.76;48.65
82743;BME280;72483;50.656;7.216;2023-12-20T01:52:15;100951.41;;;18.76;48.62
82743;BME280;72483;50.656;7.216;2023-12-20T01:54:43;100953.09;;;18.77;48.62
82743;BME280;72483;50.656;7.216;2023-12-20T01:57:10;100955.06;;;18.76;48.66
82743;BME280;72483;50.656;7.216;2023-12-20T01:59:38;100948.94;;;18.74;48.30
82743;BME280;72483;50.656;7.216;2023-12-20T02:02:05;100952.56;;;18.75;48.40
82743;BME280;72483;50.656;7.216;2023-12-20T02:04:33;100954.22;;;18.76;48.79
82743;BME280;72483;50.656;7.216;2023-12-20T02:07:01;100964.25;;;18.77;48.54
82743;BME280;72483;50.656;7.216;2023-12-20T02:09:29;100961.78;;;18.75;48.53
82743;BME280;72483;50.656;7.216;2023-12-20T02:11:57;100974.88;;;18.75;48.65
82743;BME280;72483;50.656;7.216;2023-12-20T02:14:23;100975.16;;;18.73;48.47
82743;BME280;72483;50.656;7.216;2023-12-20T02:16:50;100979.06;;;18.72;48.32
82743;BME280;72483;50.656;7.216;2023-12-20T02:19:17;100983.00;;;18.71;48.55
82743;BME280;72483;50.656;7.216;2023-12-20T02:21:45;100977.94;;;18.73;48.67
82743;BME280;72483;50.656;7.216;2023-12-20T02:24:11;100975.16;;;18.73;48.49
82743;BME280;72483;50.656;7.216;2023-12-20T02:26:38;100969.03;;;18.71;47.96
82743;BME280;72483;50.656;7.216;2023-12-20T02:29:05;100975.47;;;18.72;48.48
82743;BME280;72483;50.656;7.216;2023-12-20T02:31:31;100979.91;;;18.73;48.23
82743;BME280;72483;50.656;7.216;2023-12-20T02:33:58;100992.19;;;18.72;48.52
82743;BME280;72483;50.656;7.216;2023-12-20T02:36:24;100994.16;;;18.71;48.22
82743;BME280;72483;50.656;7.216;2023-12-20T02:38:52;101004.75;;;18.69;48.59
82743;BME280;72483;50.656;7.216;2023-12-20T02:41:19;101004.75;;;18.69;48.53
82743;BME280;72483;50.656;7.216;2023-12-20T02:43:45;101008.38;;;18.70;48.23
82743;BME280;72483;50.656;7.216;2023-12-20T02:46:12;101017.03;;;18.68;48.28
82743;BME280;72483;50.656;7.216;2023-12-20T02:48:40;101019.84;;;18.68;48.34
82743;BME280;72483;50.656;7.216;2023-12-20T02:51:06;101023.47;;;18.69;48.48
82743;BME280;72483;50.656;7.216;2023-12-20T02:53:32;101017.31;;;18.67;48.14
82743;BME280;72483;50.656;7.216;2023-12-20T02:56:00;101026.53;;;18.67;48.25
82743;BME280;72483;50.656;7.216;2023-12-20T02:58:27;101033.22;;;18.66;48.12
82743;BME280;72483;50.656;7.216;2023-12-20T03:00:53;101033.22;;;18.66;48.26
82743;BME280;72483;50.656;7.216;2023-12-20T03:03:20;101041.06;;;18.64;48.41
82743;BME280;72483;50.656;7.216;2023-12-20T03:05:46;101048.31;;;18.65;48.43
82743;BME280;72483;50.656;7.216;2023-12-20T03:08:13;101046.63;;;18.64;48.35
82743;BME280;72483;50.656;7.216;2023-12-20T03:10:39;101040.50;;;18.62;48.62
82743;BME280;72483;50.656;7.216;2023-12-20T03:13:07;101046.94;;;18.62;48.12
82743;BME280;72483;50.656;7.216;2023-12-20T03:15:34;101040.50;;;18.62;48.17
82743;BME280;72483;50.656;7.216;2023-12-20T03:18:01;101036.56;;;18.63;47.99
82743;BME280;72483;50.656;7.216;2023-12-20T03:20:27;101036.56;;;18.63;48.44
82743;BME280;72483;50.656;7.216;2023-12-20T03:22:54;101036.56;;;18.63;47.94
82743;BME280;72483;50.656;7.216;2023-12-20T03:25:20;101042.16;;;18.63;48.46
82743;BME280;72483;50.656;7.216;2023-12-20T03:27:47;101044.16;;;18.62;48.04
82743;BME280;72483;50.656;7.216;2023-12-20T03:30:14;101037.41;;;18.63;48.38
82743;BME280;72483;50.656;7.216;2023-12-20T03:32:41;101041.06;;;18.64;48.25
82743;BME280;72483;50.656;7.216;2023-12-20T03:35:08;101036.56;;;18.63;48.18
82743;BME280;72483;50.656;7.216;2023-12-20T03:37:34;101038.56;;;18.62;48.53
82743;BME280;72483;50.656;7.216;2023-12-20T03:40:01;101028.22;;;18.63;48.11
82743;BME280;72483;50.656;7.216;2023-12-20T03:42:27;101036.56;;;18.63;48.17
82743;BME280;72483;50.656;7.216;2023-12-20T03:44:54;101031.00;;;18.63;48.34
82743;BME280;72483;50.656;7.216;2023-12-20T03:47:21;101028.22;;;18.63;48.17
82743;BME280;72483;50.656;7.216;2023-12-20T03:49:48;101032.97;;;18.62;48.45
82743;BME280;72483;50.656;7.216;2023-12-20T03:52:14;101034.09;;;18.61;48.06
82743;BME280;72483;50.656;7.216;2023-12-20T03:54:41;101032.72;;;18.59;47.96
82743;BME280;72483;50.656;7.216;2023-12-20T03:57:08;101030.47;;;18.61;48.29
82743;BME280;72483;50.656;7.216;2023-12-20T03:59:35;101038.81;;;18.61;48.34
82743;BME280;72483;50.656;7.216;2023-12-20T04:02:02;101034.34;;;18.60;48.52
82743;BME280;72483;50.656;7.216;2023-12-20T04:04:30;101040.25;;;18.58;48.47
82743;BME280;72483;50.656;7.216;2023-12-20T04:06:56;101031.03;;;18.58;48.25
82743;BME280;72483;50.656;7.216;2023-12-20T04:09:23;101038.28;;;18.59;48.26
82743;BME280;72483;50.656;7.216;2023-12-20T04:11:49;101038.28;;;18.59;48.20
82743;BME280;72483;50.656;7.216;2023-12-20T04:14:16;101038.28;;;18.59;48.13
82743;BME280;72483;50.656;7.216;2023-12-20T04:16:43;101040.25;;;18.58;48.06
82743;BME280;72483;50.656;7.216;2023-12-20T04:19:09;101044.97;;;18.58;48.15
82743;BME280;72483;50.656;7.216;2023-12-20T04:21:37;101038.03;;;18.55;47.96
82743;BME280;72483;50.656;7.216;2023-12-20T04:24:04;101046.38;;;18.55;47.92
82743;BME280;72483;50.656;7.216;2023-12-20T04:26:30;101031.88;;;18.53;48.44
82743;BME280;72483;50.656;7.216;2023-12-20T04:28:57;101028.25;;;18.53;48.42
82743;BME280;72483;50.656;7.216;2023-12-20T04:31:23;101029.06;;;18.53;48.11
82743;BME280;72483;50.656;7.216;2023-12-20T04:33:50;101035.50;;;18.54;47.79
82743;BME280;72483;50.656;7.216;2023-12-20T04:36:16;101021.53;;;18.54;47.98
82743;BME280;72483;50.656;7.216;2023-12-20T04:38:44;101034.66;;;18.53;47.67
82743;BME280;72483;50.656;7.216;2023-12-20T04:41:11;101030.22;;;18.52;47.75
82743;BME280;72483;50.656;7.216;2023-12-20T04:43:40;101034.97;;;18.52;48.28
82743;BME280;72483;50.656;7.216;2023-12-20T04:46:07;101036.91;;;18.51;48.17
82743;BME280;72483;50.656;7.216;2023-12-20T04:48:33;101033.28;;;18.51;48.34
82743;BME280;72483;50.656;7.216;2023-12-20T04:51:00;101041.66;;;18.51;48.14
82743;BME280;72483;50.656;7.216;2023-12-20T04:53:26;101047.22;;;18.51;47.96
82743;BME280;72483;50.656;7.216;2023-12-20T04:55:54;101047.53;;;18.49;48.29
82743;BME280;72483;50.656;7.216;2023-12-20T04:58:21;101050.31;;;18.49;48.31
82743;BME280;72483;50.656;7.216;2023-12-20T05:00:48;101043.59;;;18.50;48.18
82743;BME280;72483;50.656;7.216;2023-12-20T05:03:14;101045.81;;;18.48;47.89
82743;BME280;72483;50.656;7.216;2023-12-20T05:05:41;101040.22;;;18.48;47.92
82743;BME280;72483;50.656;7.216;2023-12-20T05:08:07;101036.59;;;18.48;47.93
82743;BME280;72483;50.656;7.216;2023-12-20T05:10:34;101052.22;;;18.49;47.74
82743;BME280;72483;50.656;7.216;2023-12-20T05:13:03;101054.19;;;18.48;48.01
82743;BME280;72483;50.656;7.216;2023-12-20T05:15:29;101046.06;;;18.47;47.91
82743;BME280;72483;50.656;7.216;2023-12-20T05:17:56;101050.00;;;18.46;48.12
82743;BME280;72483;50.656;7.216;2023-12-20T05:20:22;101044.44;;;18.46;48.06
82743;BME280;72483;50.656;7.216;2023-12-20T05:22:49;101050.28;;;18.44;48.24
82743;BME280;72483;50.656;7.216;2023-12-20T05:25:16;101050.28;;;18.44;47.98
82743;BME280;72483;50.656;7.216;2023-12-20T05:27:42;101043.03;;;18.43;47.96
82743;BME280;72483;50.656;7.216;2023-12-20T05:30:11;101036.63;;;18.43;47.83
82743;BME280;72483;50.656;7.216;2023-12-20T05:32:37;101028.25;;;18.43;48.18
82743;BME280;72483;50.656;7.216;2023-12-20T05:35:04;101023.78;;;18.42;47.66
82743;BME280;72483;50.656;7.216;2023-12-20T05:37:31;101036.06;;;18.41;47.73
82743;BME280;72483;50.656;7.216;2023-12-20T05:39:57;101049.19;;;18.40;48.07
82743;BME280;72483;50.656;7.216;2023-12-20T05:42:24;101046.97;;;18.37;47.99
82743;BME280;72483;50.656;7.216;2023-12-20T05:44:50;101052.25;;;18.39;47.80
82743;BME280;72483;50.656;7.216;2023-12-20T05:47:18;101036.06;;;18.36;47.75
82743;BME280;72483;50.656;7.216;2023-12-20T05:49:45;101050.03;;;18.36;47.91
82743;BME280;72483;50.656;7.216;2023-12-20T05:52:11;101057.28;;;18.37;47.82
82743;BME280;72483;50.656;7.216;2023-12-20T05:54:38;101059.22;;;18.36;48.11
82743;BME280;72483;50.656;7.216;2023-12-20T05:57:04;101055.88;;;18.34;47.61
82743;BME280;72483;50.656;7.216;2023-12-20T05:59:31;101061.19;;;18.36;47.61
82743;BME280;72483;50.656;7.216;2023-12-20T06:01:57;101057.53;;;18.35;48.01
82743;BME280;72483;50.656;7.216;2023-12-20T06:04:25;101051.97;;;18.35;47.57
82743;BME280;72483;50.656;7.216;2023-12-20T06:06:52;101054.19;;;18.38;48.12
82743;BME280;72483;50.656;7.216;2023-12-20T06:09:17;101046.94;;;18.42;47.69
82743;BME280;72483;50.656;7.216;2023-12-20T06:11:44;101052.22;;;18.44;47.86
82743;BME280;72483;50.656;7.216;2023-12-20T06:14:11;101054.44;;;18.47;47.89
82743;BME280;72483;50.656;7.216;2023-12-20T06:16:37;101051.38;;;18.48;47.62
82743;BME280;72483;50.656;7.216;2023-12-20T06:19:04;101056.44;;;18.51;47.78
82743;BME280;72483;50.656;7.216;2023-12-20T06:21:32;101061.44;;;18.54;47.27
82743;BME280;72483;50.656;7.216;2023-12-20T06:23:59;101058.38;;;18.56;47.63
82743;BME280;72483;50.656;7.216;2023-12-20T06:26:25;101057.81;;;18.59;47.63
82743;BME280;72483;50.656;7.216;2023-12-20T06:28:51;101063.09;;;18.60;47.56
82743;BME280;72483;50.656;7.216;2023-12-20T06:31:18;101062.53;;;18.63;47.33
82743;BME280;72483;50.656;7.216;2023-12-20T06:33:44;101056.38;;;18.67;47.16
82743;BME280;72483;50.656;7.216;2023-12-20T06:36:11;101063.34;;;18.69;47.19
82743;BME280;72483;50.656;7.216;2023-12-20T06:38:40;101060.28;;;18.71;47.32
82743;BME280;72483;50.656;7.216;2023-12-20T06:41:07;101063.34;;;18.74;47.21
82743;BME280;72483;50.656;7.216;2023-12-20T06:43:34;101068.34;;;18.77;47.55
82743;BME280;72483;50.656;7.216;2023-12-20T06:46:00;101066.94;;;18.80;47.23
82743;BME280;72483;50.656;7.216;2023-12-20T06:48:27;101066.69;;;18.81;47.20
82743;BME280;72483;50.656;7.216;2023-12-20T06:50:53;101069.16;;;18.83;47.37
82743;BME280;72483;50.656;7.216;2023-12-20T06:53:20;101071.69;;;18.84;47.10
82743;BME280;72483;50.656;7.216;2023-12-20T06:55:48;101076.13;;;18.85;47.51
82743;BME280;72483;50.656;7.216;2023-12-20T06:58:14;101072.50;;;18.85;47.06
82743;BME280;72483;50.656;7.216;2023-12-20T07:00:41;101071.13;;;18.87;47.10
82743;BME280;72483;50.656;7.216;2023-12-20T07:03:09;101071.13;;;18.87;47.40
82743;BME280;72483;50.656;7.216;2023-12-20T07:05:35;101081.97;;;18.89;47.31
82743;BME280;72483;50.656;7.216;2023-12-20T07:08:02;101080.88;;;18.90;47.46
82743;BME280;72483;50.656;7.216;2023-12-20T07:10:29;101088.94;;;18.91;47.15
82743;BME280;72483;50.656;7.216;2023-12-20T07:12:56;101083.38;;;18.91;46.99
82743;BME280;72483;50.656;7.216;2023-12-20T07:15:23;101081.41;;;18.92;47.02
82743;BME280;72483;50.656;7.216;2023-12-20T07:17:49;101080.31;;;18.93;47.22
82743;BME280;72483;50.656;7.216;2023-12-20T07:20:16;101084.19;;;18.92;47.06
82743;BME280;72483;50.656;7.216;2023-12-20T07:22:42;101079.75;;;18.91;46.96
82743;BME280;72483;50.656;7.216;2023-12-20T07:25:09;101085.34;;;18.91;47.62
82743;BME280;72483;50.656;7.216;2023-12-20T07:27:35;101077.25;;;18.89;47.58
82743;BME280;72483;50.656;7.216;2023-12-20T07:30:04;101083.38;;;18.91;47.35
82743;BME280;72483;50.656;7.216;2023-12-20T07:32:31;101084.78;;;18.89;47.46
82743;BME280;72483;50.656;7.216;2023-12-20T07:34:58;101092.31;;;18.88;47.08
82743;BME280;72483;50.656;7.216;2023-12-20T07:37:24;101097.88;;;18.88;47.47
82743;BME280;72483;50.656;7.216;2023-12-20T07:39:51;101094.28;;;18.88;47.25
82743;BME280;72483;50.656;7.216;2023-12-20T07:42:17;101098.19;;;18.87;47.53
82743;BME280;72483;50.656;7.216;2023-12-20T07:44:44;101105.72;;;18.86;47.53
82743;BME280;72483;50.656;7.216;2023-12-20T07:47:12;101098.19;;;18.87;47.27
82743;BME280;72483;50.656;7.216;2023-12-20T07:49:40;101102.09;;;18.86;47.07
82743;BME280;72483;50.656;7.216;2023-12-20T07:52:07;101101.25;;;18.85;47.09
82743;BME280;72483;50.656;7.216;2023-12-20T07:54:34;101099.28;;;18.86;47.22
82743;BME280;72483;50.656;7.216;2023-12-20T07:57:00;101107.66;;;18.86;46.90
82743;BME280;72483;50.656;7.216;2023-12-20T07:59:27;101096.81;;;18.84;47.60
82743;BME280;72483;50.656;7.216;2023-12-20T08:01:53;101093.19;;;18.84;47.19
82743;BME280;72483;50.656;7.216;2023-12-20T08:04:22;101095.13;;;18.83;47.28
82743;BME280;72483;50.656;7.216;2023-12-20T08:06:48;101091.22;;;18.84;47.56
82743;BME280;72483;50.656;7.216;2023-12-20T08:09:15;101097.91;;;18.83;46.87
82743;BME280;72483;50.656;7.216;2023-12-20T08:11:44;101091.50;;;18.83;46.81
82743;BME280;72483;50.656;7.216;2023-12-20T08:14:11;101094.28;;;18.83;47.05
82743;BME280;72483;50.656;7.216;2023-12-20T08:16:37;101100.72;;;18.83;47.52
82743;BME280;72483;50.656;7.216;2023-12-20T08:19:04;101101.81;;;18.82;47.23
82743;BME280;72483;50.656;7.216;2023-12-20T08:21:32;101104.59;;;18.82;46.93
82743;BME280;72483;50.656;7.216;2023-12-20T08:23:59;101097.66;;;18.80;46.78
82743;BME280;72483;50.656;7.216;2023-12-20T08:26:26;101097.66;;;18.80;47.39
82743;BME280;72483;50.656;7.216;2023-12-20T08:28:52;101105.75;;;18.81;47.33
82743;BME280;72483;50.656;7.216;2023-12-20T08:31:19;101109.34;;;18.82;46.99
82743;BME280;72483;50.656;7.216;2023-12-20T08:33:46;101107.97;;;18.84;47.70
82743;BME280;72483;50.656;7.216;2023-12-20T08:36:14;101105.44;;;18.88;47.31
82743;BME280;72483;50.656;7.216;2023-12-20T08:38:41;101107.38;;;18.92;47.57
82743;BME280;72483;50.656;7.216;2023-12-20T08:41:08;101108.22;;;18.93;47.26
82743;BME280;72483;50.656;7.216;2023-12-20T08:43:35;101106.25;;;18.93;48.08
82743;BME280;72483;50.656;7.216;2023-12-20T08:46:02;101102.06;;;18.96;47.90
82743;BME280;72483;50.656;7.216;2023-12-20T08:48:28;101091.72;;;18.96;47.82
82743;BME280;72483;50.656;7.216;2023-12-20T08:50:55;101084.19;;;18.97;47.46
82743;BME280;72483;50.656;7.216;2023-12-20T08:53:21;101084.47;;;18.95;47.53
82743;BME280;72483;50.656;7.216;2023-12-20T08:55:49;101076.63;;;18.97;48.72
82743;BME280;72483;50.656;7.216;2023-12-20T08:58:16;101088.66;;;18.98;48.66
82743;BME280;72483;50.656;7.216;2023-12-20T09:00:42;101080.56;;;18.96;48.45
82743;BME280;72483;50.656;7.216;2023-12-20T09:03:09;101078.88;;;18.95;48.87
82743;BME280;72483;50.656;7.216;2023-12-20T09:05:35;101080.00;;;18.94;48.86
82743;BME280;72483;50.656;7.216;2023-12-20T09:08:02;101085.84;;;18.98;48.61
82743;BME280;72483;50.656;7.216;2023-12-20T09:10:29;101088.66;;;18.98;48.71
82743;BME280;72483;50.656;7.216;2023-12-20T09:12:57;101102.34;;;18.99;48.51
82743;BME280;72483;50.656;7.216;2023-12-20T09:15:24;101100.06;;;19.01;48.23
82743;BME280;72483;50.656;7.216;2023-12-20T09:17:51;101096.19;;;19.02;48.27
82743;BME280;72483;50.656;7.216;2023-12-20T09:20:17;101100.34;;;19.05;48.29
82743;BME280;72483;50.656;7.216;2023-12-20T09:22:44;101096.13;;;19.07;47.77
82743;BME280;72483;50.656;7.216;2023-12-20T09:25:11;101102.88;;;19.06;47.98
82743;BME280;72483;50.656;7.216;2023-12-20T09:27:38;101105.34;;;19.08;47.20
82743;BME280;72483;50.656;7.216;2023-12-20T09:30:07;101099.78;;;19.08;48.17
82743;BME280;72483;50.656;7.216;2023-12-20T09:32:34;101091.69;;;19.06;48.27
82743;BME280;72483;50.656;7.216;2023-12-20T09:35:00;101089.44;;;19.08;47.93
82743;BME280;72483;50.656;7.216;2023-12-20T09:37:27;101086.94;;;19.07;47.92
82743;BME280;72483;50.656;7.216;2023-12-20T09:39:54;101099.78;;;19.08;47.51
82743;BME280;72483;50.656;7.216;2023-12-20T09:42:24;101098.66;;;19.09;47.77
82743;BME280;72483;50.656;7.216;2023-12-20T09:44:56;101089.44;;;19.08;47.34
82743;BME280;72483;50.656;7.216;2023-12-20T09:47:28;101094.19;;;19.08;47.44
82743;BME280;72483;50.656;7.216;2023-12-20T09:49:55;101091.13;;;19.04;47.72
82743;BME280;72483;50.656;7.216;2023-12-20T09:52:23;101090.56;;;19.07;47.54
82743;BME280;72483;50.656;7.216;2023-12-20T09:54:52;101085.53;;;19.04;47.51
82743;BME280;72483;50.656;7.216;2023-12-20T09:57:20;101083.31;;;19.06;47.95
82743;BME280;72483;50.656;7.216;2023-12-20T09:59:46;101082.19;;;19.07;47.91
82743;BME280;72483;50.656;7.216;2023-12-20T10:02:13;101079.97;;;19.04;47.70
82743;BME280;72483;50.656;7.216;2023-12-20T10:04:46;101080.81;;;19.05;48.10
82743;BME280;72483;50.656;7.216;2023-12-20T10:07:13;101086.38;;;19.05;47.78
82743;BME280;72483;50.656;7.216;2023-12-20T10:09:40;101085.53;;;19.04;47.24
82743;BME280;72483;50.656;7.216;2023-12-20T10:12:08;101086.69;;;19.03;47.89
82743;BME280;72483;50.656;7.216;2023-12-20T10:14:34;101091.13;;;19.04;47.80
82743;BME280;72483;50.656;7.216;2023-12-20T10:17:05;101079.97;;;19.04;47.95
82743;BME280;72483;50.656;7.216;2023-12-20T10:19:32;101078.31;;;19.03;47.70
82743;BME280;72483;50.656;7.216;2023-12-20T10:22:00;101078.00;;;19.05;48.09
82743;BME280;72483;50.656;7.216;2023-12-20T10:24:28;101083.31;;;19.06;47.52
82743;BME280;72483;50.656;7.216;2023-12-20T10:27:01;101081.66;;;19.05;47.95
82743;BME280;72483;50.656;7.216;2023-12-20T10:29:32;101080.81;;;19.05;47.38
82743;BME280;72483;50.656;7.216;2023-12-20T10:31:58;101074.94;;;19.06;47.64
82743;BME280;72483;50.656;7.216;2023-12-20T10:34:25;101085.81;;;19.08;47.47
82743;BME280;72483;50.656;7.216;2023-12-20T10:36:52;101080.22;;;19.08;47.70
82743;BME280;72483;50.656;7.216;2023-12-20T10:39:20;101067.09;;;19.08;47.87
82743;BME280;72483;50.656;7.216;2023-12-20T10:41:47;101063.19;;;19.09;47.20
82743;BME280;72483;50.656;7.216;2023-12-20T10:44:14;101055.94;;;19.08;47.79
82743;BME280;72483;50.656;7.216;2023-12-20T10:46:41;101055.94;;;19.08;47.41
82743;BME280;72483;50.656;7.216;2023-12-20T10:49:15;101050.34;;;19.08;47.53
82743;BME280;72483;50.656;7.216;2023-12-20T10:51:44;101045.88;;;19.12;47.62
82743;BME280;72483;50.656;7.216;2023-12-20T10:54:12;101041.41;;;19.11;47.03
82743;BME280;72483;50.656;7.216;2023-12-20T10:56:40;101031.03;;;19.17;46.99
82743;BME280;72483;50.656;7.216;2023-12-20T10:59:08;101034.97;;;19.16;47.27
82743;BME280;72483;50.656;7.216;2023-12-20T11:01:38;101027.41;;;19.16;47.01
82743;BME280;72483;50.656;7.216;2023-12-20T11:04:10;101026.03;;;19.14;47.63
82743;BME280;72483;50.656;7.216;2023-12-20T11:06:46;101023.81;;;19.16;47.31
82743;BME280;72483;50.656;7.216;2023-12-20T11:09:19;101030.75;;;19.18;47.53
82743;BME280;72483;50.656;7.216;2023-12-20T11:12:02;101017.34;;;19.21;47.13
82743;BME280;72483;50.656;7.216;2023-12-20T11:14:38;101022.06;;;19.20;46.95
82743;BME280;72483;50.656;7.216;2023-12-20T11:17:07;101014.00;;;19.18;46.89
82743;BME280;72483;50.656;7.216;2023-12-20T11:19:36;101027.09;;;19.23;46.67
82743;BME280;72483;50.656;7.216;2023-12-20T11:22:03;101024.59;;;19.22;46.45
82743;BME280;72483;50.656;7.216;2023-12-20T11:24:31;101035.72;;;19.27;47.11
82743;BME280;72483;50.656;7.216;2023-12-20T11:26:59;101023.19;;;19.24;47.32
82743;BME280;72483;50.656;7.216;2023-12-20T11:29:30;101021.22;;;19.25;47.19
82743;BME280;72483;50.656;7.216;2023-12-20T11:31:57;101020.38;;;19.24;46.50
82743;BME280;72483;50.656;7.216;2023-12-20T11:34:27;101025.69;;;19.26;46.27
82743;BME280;72483;50.656;7.216;2023-12-20T11:36:57;101029.03;;;19.23;47.04
82743;BME280;72483;50.656;7.216;2023-12-20T11:39:25;101028.50;;;19.21;46.38
82743;BME280;72483;50.656;7.216;2023-12-20T11:41:51;101024.59;;;19.22;46.72
82743;BME280;72483;50.656;7.216;2023-12-20T11:44:19;101034.13;;;19.15;47.19
82743;BME280;72483;50.656;7.216;2023-12-20T11:46:46;101039.72;;;19.15;46.84
82743;BME280;72483;50.656;7.216;2023-12-20T11:49:12;101031.34;;;19.15;46.89
82743;BME280;72483;50.656;7.216;2023-12-20T11:51:40;101026.88;;;19.14;46.95
82743;BME280;72483;50.656;7.216;2023-12-20T11:54:07;101043.63;;;19.14;46.85
82743;BME280;72483;50.656;7.216;2023-12-20T11:56:35;101029.13;;;19.12;46.83
82743;BME280;72483;50.656;7.216;2023-12-20T11:59:02;101041.69;;;19.10;47.60
82743;BME280;72483;50.656;7.216;2023-12-20T12:01:31;101025.75;;;19.10;46.96
82743;BME280;72483;50.656;7.216;2023-12-20T12:04:04;101024.13;;;19.09;47.36
82743;BME280;72483;50.656;7.216;2023-12-20T12:06:30;101024.13;;;19.04;47.20
82743;BME280;72483;50.656;7.216;2023-12-20T12:08:57;101021.06;;;19.01;47.14
82743;BME280;72483;50.656;7.216;2023-12-20T12:11:23;101010.75;;;19.01;46.94
82743;BME280;72483;50.656;7.216;2023-12-20T12:13:50;101002.09;;;19.03;47.08
82743;BME280;72483;50.656;7.216;2023-12-20T12:16:17;100997.94;;;19.00;46.65
82743;BME280;72483;50.656;7.216;2023-12-20T12:18:45;100998.19;;;18.99;46.88
82743;BME280;72483;50.656;7.216;2023-12-20T12:21:18;100993.72;;;18.98;46.63
82743;BME280;72483;50.656;7.216;2023-12-20T12:23:45;100996.81;;;18.96;46.75
82743;BME280;72483;50.656;7.216;2023-12-20T12:26:12;100990.41;;;18.96;47.34
82743;BME280;72483;50.656;7.216;2023-12-20T12:28:40;100981.50;;;18.94;47.55
82743;BME280;72483;50.656;7.216;2023-12-20T12:31:06;100985.38;;;18.93;47.90
82743;BME280;72483;50.656;7.216;2023-12-20T12:33:33;100973.38;;;18.92;47.54
82743;BME280;72483;50.656;7.216;2023-12-20T12:36:01;100980.66;;;18.88;47.74
82743;BME280;72483;50.656;7.216;2023-12-20T12:38:30;100974.81;;;18.85;47.75
82743;BME280;72483;50.656;7.216;2023-12-20T12:40:57;100962.00;;;18.84;47.37
82743;BME280;72483;50.656;7.216;2023-12-20T12:43:24;100954.72;;;18.83;47.32
82743;BME280;72483;50.656;7.216;2023-12-20T12:45:50;100956.09;;;18.85;47.75
82743;BME280;72483;50.656;7.216;2023-12-20T12:48:17;100955.53;;;18.88;47.45
82743;BME280;72483;50.656;7.216;2023-12-20T12:50:45;100952.47;;;18.90;47.11